createdAt,value
2023-04-27T00:02:14.771Z,10.60
2023-04-27T00:04:43.358Z,10.97
2023-04-27T00:07:11.831Z,10.94
2023-04-27T00:09:39.735Z,10.93
2023-04-27T00:12:08.007Z,10.74
2023-04-27T00:14:37.255Z,10.80
2023-04-27T00:17:05.181Z,10.63
2023-04-27T00:19:33.728Z,10.64
2023-04-27T00:22:01.622Z,10.70
2023-04-27T00:24:29.662Z,10.72
2023-04-27T00:26:57.822Z,10.75
2023-04-27T00:29:25.836Z,10.65
2023-04-27T00:31:55.111Z,10.62
2023-04-27T00:34:23.714Z,10.47
2023-04-27T00:36:51.558Z,10.68
2023-04-27T00:39:21.364Z,10.59
2023-04-27T00:41:49.282Z,10.50
2023-04-27T00:44:23.884Z,10.48
2023-04-27T00:46:52.165Z,10.54
2023-04-27T00:49:22.445Z,10.64
2023-04-27T00:51:50.550Z,10.49
2023-04-27T00:54:20.984Z,10.49
2023-04-27T00:56:50.158Z,10.46
2023-04-27T00:59:18.447Z,10.53
2023-04-27T01:01:47.717Z,10.44
2023-04-27T01:04:17.042Z,10.58
2023-04-27T01:06:46.752Z,10.45
2023-04-27T01:09:16.502Z,10.28
2023-04-27T01:11:44.480Z,10.37
2023-04-27T01:14:12.501Z,10.36
2023-04-27T01:16:40.595Z,10.46
2023-04-27T01:19:10.834Z,10.59
2023-04-27T01:21:38.897Z,10.49
2023-04-27T01:24:09.668Z,10.57
2023-04-27T01:26:39.001Z,10.50
2023-04-27T01:29:06.908Z,10.45
2023-04-27T01:31:35.505Z,10.25
2023-04-27T01:34:03.502Z,10.48
2023-04-27T01:36:31.845Z,10.45
2023-04-27T01:38:59.802Z,10.46
2023-04-27T01:41:29.131Z,10.13
2023-04-27T01:43:57.459Z,10.20
2023-04-27T01:46:25.426Z,10.39
2023-04-27T01:48:53.421Z,10.31
2023-04-27T01:51:21.350Z,10.44
2023-04-27T01:53:49.493Z,10.28
2023-04-27T01:56:17.679Z,10.17
2023-04-27T01:58:47.234Z,10.14
2023-04-27T02:01:15.121Z,9.89
2023-04-27T02:03:43.259Z,9.95
2023-04-27T02:06:13.030Z,10.23
2023-04-27T02:08:41.006Z,10.12
2023-04-27T02:11:10.108Z,9.90
2023-04-27T02:13:38.029Z,10.12
2023-04-27T02:16:08.416Z,10.27
2023-04-27T02:18:36.360Z,9.97
2023-04-27T02:21:09.718Z,10.19
2023-04-27T02:23:38.010Z,10.08
2023-04-27T02:26:06.053Z,10.21
2023-04-27T02:28:34.009Z,10.07
2023-04-27T02:31:03.133Z,9.90
2023-04-27T02:33:33.064Z,9.90
2023-04-27T02:36:00.961Z,10.04
2023-04-27T02:38:30.679Z,10.08
2023-04-27T02:40:58.605Z,10.05
2023-04-27T02:43:28.046Z,9.92
2023-04-27T02:45:55.957Z,9.83
2023-04-27T02:48:23.946Z,9.84
2023-04-27T02:50:53.133Z,9.68
2023-04-27T02:53:21.019Z,9.58
2023-04-27T02:55:49.655Z,9.96
2023-04-27T02:58:17.945Z,9.93
2023-04-27T03:00:46.794Z,9.97
2023-04-27T03:03:16.285Z,9.86
2023-04-27T03:05:44.384Z,9.96
2023-04-27T03:08:13.647Z,9.79
2023-04-27T03:10:41.602Z,9.86
2023-04-27T03:13:11.038Z,9.85
2023-04-27T03:15:38.948Z,9.84
2023-04-27T03:18:07.310Z,9.75
2023-04-27T03:20:35.470Z,9.77
2023-04-27T03:23:03.319Z,9.54
2023-04-27T03:25:32.575Z,9.79
2023-04-27T03:28:00.707Z,9.86
2023-04-27T03:30:28.500Z,9.90
2023-04-27T03:32:56.417Z,9.87
2023-04-27T03:35:24.298Z,9.87
2023-04-27T03:37:52.127Z,9.99
2023-04-27T03:40:20.092Z,9.92
2023-04-27T03:42:49.415Z,9.72
2023-04-27T03:45:19.204Z,9.90
2023-04-27T03:47:47.205Z,9.90
2023-04-27T03:50:16.449Z,9.94
2023-04-27T03:52:44.394Z,9.87
2023-04-27T03:55:12.540Z,9.90
2023-04-27T03:57:43.001Z,9.89
2023-04-27T04:00:14.596Z,9.96
2023-04-27T04:02:43.036Z,9.85
2023-04-27T04:05:11.181Z,9.81
2023-04-27T04:07:39.257Z,9.77
2023-04-27T04:10:08.618Z,9.62
2023-04-27T04:12:38.228Z,9.70
2023-04-27T04:15:07.808Z,9.75
2023-04-27T04:17:37.144Z,9.77
2023-04-27T04:20:08.778Z,9.76
2023-04-27T04:22:36.666Z,9.88
2023-04-27T04:25:05.255Z,9.83
2023-04-27T04:27:33.568Z,9.97
2023-04-27T04:30:01.867Z,9.89
2023-04-27T04:32:31.227Z,9.91
2023-04-27T04:35:01.548Z,9.90
2023-04-27T04:37:30.436Z,9.98
2023-04-27T04:39:58.389Z,10.09
2023-04-27T04:42:27.663Z,10.01
2023-04-27T04:44:55.782Z,9.91
2023-04-27T04:47:23.724Z,10.11
2023-04-27T04:49:53.274Z,9.96
2023-04-27T04:52:22.690Z,10.23
2023-04-27T04:54:52.776Z,10.11
2023-04-27T04:57:22.362Z,10.02
2023-04-27T04:59:50.316Z,10.13
2023-04-27T05:02:18.195Z,10.11
2023-04-27T05:04:46.337Z,10.35
2023-04-27T05:07:15.242Z,10.41
2023-04-27T05:09:45.586Z,10.21
2023-04-27T05:12:13.412Z,10.10
2023-04-27T05:14:41.353Z,10.08
2023-04-27T05:17:09.205Z,10.05
2023-04-27T05:19:37.116Z,10.33
2023-04-27T05:22:05.031Z,10.52
2023-04-27T05:24:32.901Z,10.51
2023-04-27T05:27:02.555Z,10.25
2023-04-27T05:29:30.711Z,10.39
2023-04-27T05:31:58.972Z,10.62
2023-04-27T05:34:26.929Z,10.91
2023-04-27T05:36:54.804Z,10.86
2023-04-27T05:39:22.643Z,10.80
2023-04-27T05:41:50.521Z,11.07
2023-04-27T05:44:19.748Z,11.02
2023-04-27T05:46:47.627Z,11.14
2023-04-27T05:49:16.026Z,11.25
2023-04-27T05:51:44.001Z,11.20
2023-04-27T05:54:11.841Z,11.25
2023-04-27T05:56:39.693Z,11.12
2023-04-27T05:59:07.625Z,11.34
2023-04-27T06:01:36.863Z,11.44
2023-04-27T06:04:04.998Z,11.27
2023-04-27T06:06:33.989Z,11.48
2023-04-27T06:09:01.856Z,11.64
2023-04-27T06:11:29.724Z,11.59
2023-04-27T06:13:57.602Z,11.73
2023-04-27T06:16:25.587Z,12.16
2023-04-27T06:18:54.828Z,12.25
2023-04-27T06:21:22.695Z,12.23
2023-04-27T06:23:50.686Z,12.13
2023-04-27T06:26:18.784Z,12.14
2023-04-27T06:28:46.780Z,12.43
2023-04-27T06:31:15.249Z,11.89
2023-04-27T06:33:43.239Z,11.99
2023-04-27T06:36:12.536Z,12.09
2023-04-27T06:38:40.531Z,12.00
2023-04-27T06:41:08.413Z,11.85
2023-04-27T06:43:36.333Z,11.34
2023-04-27T06:46:04.580Z,11.61
2023-04-27T06:48:32.478Z,12.10
2023-04-27T06:51:00.693Z,12.23
2023-04-27T06:53:29.918Z,12.07
2023-04-27T06:55:57.789Z,11.78
2023-04-27T06:58:25.637Z,12.29
2023-04-27T07:00:53.722Z,12.97
2023-04-27T07:03:22.526Z,13.19
2023-04-27T07:05:51.593Z,13.02
2023-04-27T07:08:19.586Z,12.90
2023-04-27T07:10:48.810Z,12.94
2023-04-27T07:13:16.775Z,12.58
2023-04-27T07:15:44.931Z,12.50
2023-04-27T07:18:13.173Z,12.52
2023-04-27T07:20:42.369Z,12.96
2023-04-27T07:23:10.742Z,13.26
2023-04-27T07:25:40.264Z,13.46
2023-04-27T07:28:09.898Z,13.67
2023-04-27T07:30:38.083Z,12.54
2023-04-27T07:33:07.258Z,13.07
2023-04-27T07:35:35.600Z,13.23
2023-04-27T07:38:03.867Z,13.31
2023-04-27T07:40:32.814Z,13.45
2023-04-27T07:43:00.954Z,13.28
2023-04-27T07:45:32.860Z,13.61
2023-04-27T07:48:02.233Z,13.75
2023-04-27T07:50:30.942Z,14.09
2023-04-27T07:52:59.320Z,13.87
2023-04-27T07:55:28.669Z,13.98
2023-04-27T07:57:57.097Z,13.56
2023-04-27T08:00:26.399Z,13.09
2023-04-27T08:02:56.571Z,13.11
2023-04-27T08:05:24.941Z,13.26
2023-04-27T08:07:54.196Z,13.26
2023-04-27T08:10:22.863Z,13.27
2023-04-27T08:12:50.986Z,13.52
2023-04-27T08:15:18.965Z,13.51
2023-04-27T08:17:47.349Z,13.40
2023-04-27T08:20:16.837Z,13.41
2023-04-27T08:22:45.031Z,13.24
2023-04-27T08:25:12.989Z,13.78
2023-04-27T08:27:41.225Z,13.62
2023-04-27T08:30:10.354Z,13.22
2023-04-27T08:32:38.375Z,12.69
2023-04-27T08:35:07.171Z,12.88
2023-04-27T08:37:36.624Z,12.83
2023-04-27T08:40:08.263Z,12.74
2023-04-27T08:42:36.404Z,13.09
2023-04-27T08:45:05.055Z,12.95
2023-04-27T08:47:42.556Z,13.08
2023-04-27T08:50:12.719Z,12.80
2023-04-27T08:52:44.747Z,12.79
2023-04-27T08:55:15.102Z,13.01
2023-04-27T08:57:55.251Z,12.55
2023-04-27T09:00:23.656Z,13.15
2023-04-27T09:02:51.803Z,13.22
2023-04-27T09:05:20.578Z,13.04
2023-04-27T09:08:00.969Z,14.13
2023-04-27T09:10:30.115Z,14.68
2023-04-27T09:13:02.052Z,15.55
2023-04-27T09:15:30.186Z,16.18
2023-04-27T09:17:58.968Z,15.43
2023-04-27T09:20:28.718Z,15.13
2023-04-27T09:22:58.385Z,14.49
2023-04-27T09:25:30.059Z,14.02
2023-04-27T09:27:59.019Z,13.70
2023-04-27T09:30:27.247Z,13.01
2023-04-27T09:33:26.706Z,13.17
2023-04-27T09:35:55.305Z,13.61
2023-04-27T09:38:24.166Z,13.38
2023-04-27T09:40:54.747Z,14.21
2023-04-27T09:43:23.360Z,14.71
2023-04-27T09:45:52.197Z,15.59
2023-04-27T09:48:21.693Z,15.93
2023-04-27T09:50:51.424Z,16.00
2023-04-27T09:53:21.776Z,17.27
2023-04-27T09:56:00.868Z,17.76
2023-04-27T09:58:48.498Z,17.91
2023-04-27T10:01:26.323Z,17.89
2023-04-27T10:04:06.539Z,17.92
2023-04-27T10:07:02.150Z,18.58
2023-04-27T10:09:37.073Z,18.68
2023-04-27T10:12:20.815Z,18.91
2023-04-27T10:14:53.534Z,18.14
2023-04-27T10:17:26.550Z,17.18
2023-04-27T10:19:58.455Z,15.95
2023-04-27T10:22:39.230Z,15.95
2023-04-27T10:25:16.536Z,15.70
2023-04-27T10:27:52.200Z,15.77
2023-04-27T10:30:21.411Z,15.84
2023-04-27T10:32:53.808Z,15.57
2023-04-27T10:35:23.130Z,15.71
2023-04-27T10:37:52.196Z,14.79
2023-04-27T10:40:20.139Z,15.71
2023-04-27T10:42:50.178Z,17.03
2023-04-27T10:45:31.545Z,17.88
2023-04-27T10:48:02.053Z,18.04
2023-04-27T10:50:31.380Z,18.65
2023-04-27T10:53:02.528Z,18.00
2023-04-27T10:55:30.856Z,18.27
2023-04-27T10:58:00.296Z,17.95
2023-04-27T11:00:30.053Z,17.03
2023-04-27T11:02:59.466Z,17.13
2023-04-27T11:05:33.028Z,17.10
2023-04-27T11:08:08.376Z,17.29
2023-04-27T11:10:39.523Z,16.92
2023-04-27T11:13:11.378Z,16.21
2023-04-27T11:15:46.957Z,15.68
2023-04-27T11:18:15.713Z,15.68
2023-04-27T11:20:44.885Z,15.60
2023-04-27T11:23:12.928Z,15.42
2023-04-27T11:25:40.819Z,15.58
2023-04-27T11:28:19.501Z,15.46
2023-04-27T11:30:47.742Z,16.02
2023-04-27T11:33:15.967Z,15.92
2023-04-27T11:35:43.872Z,15.60
2023-04-27T11:38:18.103Z,15.50
2023-04-27T11:40:46.206Z,15.39
2023-04-27T11:43:14.871Z,15.34
2023-04-27T11:45:47.295Z,15.48
2023-04-27T11:48:15.953Z,15.50
2023-04-27T11:50:47.411Z,15.69
2023-04-27T11:53:17.413Z,15.53
2023-04-27T11:55:52.997Z,15.67
2023-04-27T11:58:22.281Z,16.10
2023-04-27T12:00:51.555Z,16.15
2023-04-27T12:03:19.614Z,16.00
2023-04-27T12:05:51.604Z,15.92
2023-04-27T12:08:19.693Z,16.23
2023-04-27T12:10:47.831Z,16.49
2023-04-27T12:13:16.204Z,15.78
2023-04-27T12:15:44.659Z,15.65
2023-04-27T12:18:14.139Z,14.89
2023-04-27T12:20:42.250Z,15.06
2023-04-27T12:23:10.385Z,14.99
2023-04-27T12:25:38.493Z,15.52
2023-04-27T12:28:06.462Z,15.61
2023-04-27T12:30:34.388Z,15.37
2023-04-27T12:33:06.763Z,15.17
2023-04-27T12:35:36.766Z,15.68
2023-04-27T12:38:04.911Z,15.52
2023-04-27T12:40:32.870Z,16.53
2023-04-27T12:43:01.549Z,16.67
2023-04-27T12:45:29.546Z,16.71
2023-04-27T12:48:02.523Z,16.67
2023-04-27T12:50:32.574Z,15.66
2023-04-27T12:53:02.030Z,16.04
2023-04-27T12:55:34.090Z,16.20
2023-04-27T12:58:02.512Z,16.14
2023-04-27T13:00:30.587Z,15.83
2023-04-27T13:02:59.387Z,16.40
2023-04-27T13:05:28.300Z,16.17
2023-04-27T13:07:57.798Z,16.29
2023-04-27T13:10:27.108Z,16.39
2023-04-27T13:12:55.811Z,16.04
2023-04-27T13:15:23.693Z,16.10
2023-04-27T13:17:53.193Z,15.45
2023-04-27T13:20:21.393Z,15.73
2023-04-27T13:22:49.311Z,15.72
2023-04-27T13:25:19.787Z,15.59
2023-04-27T13:27:49.175Z,16.04
2023-04-27T13:30:17.207Z,15.36
2023-04-27T13:32:45.038Z,15.19
2023-04-27T13:35:12.956Z,15.86
2023-04-27T13:37:42.328Z,15.06
2023-04-27T13:40:12.559Z,15.77
2023-04-27T13:42:41.130Z,16.17
2023-04-27T13:45:11.473Z,16.28
2023-04-27T13:47:40.692Z,15.99
2023-04-27T13:50:11.066Z,16.50
2023-04-27T13:52:39.726Z,16.68
2023-04-27T13:55:09.828Z,16.50
2023-04-27T13:57:38.453Z,16.28
2023-04-27T14:00:08.035Z,16.42
2023-04-27T14:02:38.738Z,15.97
2023-04-27T14:05:07.789Z,16.07
2023-04-27T14:07:36.522Z,16.33
2023-04-27T14:10:05.303Z,16.17
2023-04-27T14:12:33.508Z,15.71
2023-04-27T14:15:01.416Z,15.83
2023-04-27T14:17:29.363Z,15.73
2023-04-27T14:19:58.628Z,15.96
2023-04-27T14:22:26.585Z,15.65
2023-04-27T14:24:56.404Z,15.67
2023-04-27T14:27:24.623Z,15.23
2023-04-27T14:29:52.612Z,15.56
2023-04-27T14:32:21.205Z,15.57
2023-04-27T14:34:49.340Z,15.62
2023-04-27T14:37:18.649Z,15.13
2023-04-27T14:39:46.910Z,14.79
2023-04-27T14:42:14.887Z,15.30
2023-04-27T14:44:42.744Z,15.23
2023-04-27T14:47:10.774Z,15.32
2023-04-27T14:49:38.898Z,15.21
2023-04-27T14:52:06.974Z,15.10
2023-04-27T14:54:38.421Z,14.50
2023-04-27T14:57:06.396Z,14.91
2023-04-27T14:59:34.619Z,15.15
2023-04-27T15:02:02.963Z,15.42
2023-04-27T15:04:30.998Z,15.25
2023-04-27T15:06:58.859Z,15.17
2023-04-27T15:09:26.794Z,15.08
2023-04-27T15:11:56.078Z,15.17
2023-04-27T15:14:23.966Z,14.84
2023-04-27T15:16:52.162Z,15.06
2023-04-27T15:19:20.046Z,14.64
2023-04-27T15:21:48.614Z,14.90
2023-04-27T15:24:16.515Z,15.36
2023-04-27T15:26:44.423Z,15.16
2023-04-27T15:29:13.836Z,14.88
2023-04-27T15:31:41.876Z,14.88
2023-04-27T15:34:09.845Z,14.92
2023-04-27T15:36:37.780Z,15.21
2023-04-27T15:39:08.827Z,14.99
2023-04-27T15:41:38.088Z,14.80
2023-04-27T15:44:06.908Z,14.59
2023-04-27T15:46:36.469Z,14.88
2023-04-27T15:49:04.355Z,14.90
2023-04-27T15:51:32.377Z,14.87
2023-04-27T15:54:00.454Z,14.99
2023-04-27T15:56:30.579Z,15.15
2023-04-27T15:58:58.794Z,15.11
2023-04-27T16:01:27.627Z,15.03
2023-04-27T16:03:57.391Z,15.03
2023-04-27T16:06:33.156Z,14.92
2023-04-27T16:09:03.237Z,15.12
2023-04-27T16:11:31.220Z,15.24
2023-04-27T16:13:59.577Z,15.09
2023-04-27T16:16:27.824Z,15.31
2023-04-27T16:18:58.499Z,15.16
2023-04-27T16:21:26.940Z,15.06
2023-04-27T16:23:55.093Z,15.10
2023-04-27T16:26:23.519Z,15.22
2023-04-27T16:28:52.516Z,15.09
2023-04-27T16:31:20.532Z,15.13
2023-04-27T16:33:48.403Z,15.26
2023-04-27T16:36:17.683Z,15.15
2023-04-27T16:38:46.161Z,14.94
2023-04-27T16:41:14.266Z,14.67
2023-04-27T16:43:42.081Z,14.77
2023-04-27T16:46:11.775Z,14.88
2023-04-27T16:48:39.695Z,14.91
2023-04-27T16:51:07.830Z,14.85
2023-04-27T16:53:37.655Z,14.62
2023-04-27T16:56:06.133Z,14.76
2023-04-27T16:58:36.005Z,14.70
2023-04-27T17:01:04.722Z,14.51
2023-04-27T17:03:34.590Z,14.53
2023-04-27T17:06:03.011Z,14.37
2023-04-27T17:08:30.937Z,14.22
2023-04-27T17:11:00.208Z,14.19
2023-04-27T17:13:28.143Z,14.19
2023-04-27T17:15:56.145Z,13.95
2023-04-27T17:18:23.993Z,13.98
2023-04-27T17:20:52.055Z,14.01
2023-04-27T17:23:20.049Z,14.07
2023-04-27T17:25:47.923Z,13.99
2023-04-27T17:28:17.147Z,14.04
2023-04-27T17:30:45.092Z,14.14
2023-04-27T17:33:14.712Z,13.89
2023-04-27T17:35:44.309Z,13.84
2023-04-27T17:38:12.337Z,13.99
2023-04-27T17:40:40.228Z,14.06
2023-04-27T17:43:10.247Z,14.12
2023-04-27T17:45:39.515Z,13.94
2023-04-27T17:48:07.731Z,13.69
2023-04-27T17:50:36.161Z,13.79
2023-04-27T17:53:04.153Z,13.76
2023-04-27T17:55:32.385Z,13.79
2023-04-27T17:58:00.343Z,13.76
2023-04-27T18:00:28.245Z,13.69
2023-04-27T18:02:57.611Z,13.73
2023-04-27T18:05:25.764Z,13.67
2023-04-27T18:07:54.021Z,13.59
2023-04-27T18:10:21.927Z,13.57
2023-04-27T18:12:49.831Z,13.38
2023-04-27T18:15:17.709Z,13.32
2023-04-27T18:17:45.657Z,13.25
2023-04-27T18:20:15.661Z,13.34
2023-04-27T18:22:43.622Z,13.23
2023-04-27T18:25:13.106Z,13.26
2023-04-27T18:27:41.483Z,13.16
2023-04-27T18:30:09.759Z,13.15
2023-04-27T18:32:38.161Z,13.18
2023-04-27T18:35:06.846Z,13.15
2023-04-27T18:37:36.179Z,13.12
2023-04-27T18:40:05.825Z,13.06
2023-04-27T18:42:33.741Z,12.98
2023-04-27T18:45:01.882Z,13.12
2023-04-27T18:47:29.751Z,13.05
2023-04-27T18:49:57.671Z,13.00
2023-04-27T18:52:25.601Z,12.86
2023-04-27T18:54:54.884Z,12.93
2023-04-27T18:57:23.257Z,12.91
2023-04-27T18:59:51.338Z,12.98
2023-04-27T19:02:19.251Z,12.92
2023-04-27T19:04:52.746Z,12.81
2023-04-27T19:07:29.859Z,12.78
2023-04-27T19:09:59.094Z,12.80
2023-04-27T19:12:27.011Z,12.74
2023-04-27T19:14:54.968Z,12.77
2023-04-27T19:17:23.031Z,12.66
2023-04-27T19:19:51.135Z,12.42
2023-04-27T19:22:19.123Z,12.44
2023-04-27T19:24:47.000Z,12.49
2023-04-27T19:27:16.323Z,12.33
2023-04-27T19:29:51.768Z,12.32
2023-04-27T19:32:22.208Z,12.31
2023-04-27T19:34:50.291Z,12.35
2023-04-27T19:37:18.183Z,12.32
2023-04-27T19:39:46.908Z,12.26
2023-04-27T19:42:16.342Z,12.32
2023-04-27T19:44:44.280Z,12.18
2023-04-27T19:47:12.162Z,12.17
2023-04-27T19:49:40.279Z,12.23
2023-04-27T19:52:08.187Z,12.24
2023-04-27T19:54:38.295Z,12.19
2023-04-27T19:57:06.639Z,12.29
2023-04-27T19:59:36.159Z,11.97
2023-04-27T20:02:04.393Z,12.08
2023-04-27T20:04:33.070Z,12.03
2023-04-27T20:07:01.834Z,11.84
2023-04-27T20:09:30.686Z,11.99
2023-04-27T20:11:58.582Z,11.93
2023-04-27T20:14:29.020Z,11.98
2023-04-27T20:16:58.316Z,11.86
2023-04-27T20:19:26.561Z,11.70
2023-04-27T20:21:54.551Z,11.70
2023-04-27T20:24:23.369Z,11.65
2023-04-27T20:26:51.279Z,11.56
2023-04-27T20:29:19.156Z,11.54
2023-04-27T20:31:48.548Z,11.56
2023-04-27T20:34:18.149Z,11.64
2023-04-27T20:36:46.843Z,11.55
2023-04-27T20:39:15.337Z,11.66
2023-04-27T20:41:44.361Z,11.50
2023-04-27T20:44:13.108Z,11.29
2023-04-27T20:46:41.529Z,11.20
2023-04-27T20:49:09.482Z,11.34
2023-04-27T20:51:39.177Z,11.35
2023-04-27T20:54:07.156Z,11.39
2023-04-27T20:56:35.073Z,11.40
2023-04-27T20:59:03.145Z,11.25
2023-04-27T21:01:31.041Z,11.15
2023-04-27T21:03:59.089Z,11.23
2023-04-27T21:06:27.155Z,11.12
2023-04-27T21:08:57.519Z,11.10
2023-04-27T21:11:25.504Z,11.07
2023-04-27T21:13:53.819Z,10.88
2023-04-27T21:16:22.027Z,10.89
2023-04-27T21:18:49.906Z,11.01
2023-04-27T21:21:17.854Z,11.19
2023-04-27T21:23:48.096Z,11.25
2023-04-27T21:26:19.199Z,10.96
2023-04-27T21:28:47.454Z,10.90
2023-04-27T21:31:15.463Z,10.99
2023-04-27T21:33:43.600Z,10.83
2023-04-27T21:36:11.501Z,10.76
2023-04-27T21:38:39.400Z,10.85
2023-04-27T21:41:07.468Z,10.98
2023-04-27T21:43:36.725Z,11.05
2023-04-27T21:46:04.640Z,10.82
2023-04-27T21:48:32.563Z,10.71
2023-04-27T21:51:00.430Z,10.71
2023-04-27T21:53:28.789Z,10.70
2023-04-27T21:55:57.496Z,10.84
2023-04-27T21:58:25.630Z,10.70
2023-04-27T22:00:54.895Z,10.46
2023-04-27T22:03:23.449Z,10.59
2023-04-27T22:05:52.810Z,10.74
2023-04-27T22:08:21.773Z,10.70
2023-04-27T22:10:49.767Z,10.76
2023-04-27T22:13:19.259Z,10.66
2023-04-27T22:15:47.714Z,10.76
2023-04-27T22:18:17.066Z,10.46
2023-04-27T22:20:45.238Z,10.39
2023-04-27T22:23:13.188Z,10.38
2023-04-27T22:25:42.830Z,10.47
2023-04-27T22:28:11.051Z,10.53
2023-04-27T22:30:39.215Z,10.52
2023-04-27T22:33:07.337Z,10.50
2023-04-27T22:35:37.440Z,10.52
2023-04-27T22:38:07.017Z,10.55
2023-04-27T22:40:34.857Z,10.56
2023-04-27T22:43:02.755Z,10.39
2023-04-27T22:45:30.849Z,10.31
2023-04-27T22:47:58.827Z,10.27
2023-04-27T22:50:26.765Z,10.42
2023-04-27T22:52:56.049Z,10.37
2023-04-27T22:55:24.034Z,10.43
2023-04-27T22:57:53.759Z,10.35
2023-04-27T23:00:21.968Z,10.19
2023-04-27T23:02:50.039Z,10.18
2023-04-27T23:05:18.155Z,10.29
2023-04-27T23:07:46.420Z,10.32
2023-04-27T23:10:15.710Z,10.24
2023-04-27T23:12:43.612Z,10.22
2023-04-27T23:15:12.453Z,10.30
2023-04-27T23:17:40.460Z,10.40
2023-04-27T23:20:24.186Z,10.39
2023-04-27T23:22:55.034Z,10.29
2023-04-27T23:25:24.570Z,10.27
2023-04-27T23:27:52.989Z,10.30
2023-04-27T23:30:21.908Z,10.40
2023-04-27T23:32:49.991Z,10.28
2023-04-27T23:35:17.907Z,10.23
2023-04-27T23:37:45.845Z,10.28
2023-04-27T23:40:14.109Z,10.14
2023-04-27T23:42:43.433Z,10.18
2023-04-27T23:45:12.242Z,10.20
2023-04-27T23:47:40.241Z,10.15
2023-04-27T23:50:09.019Z,10.08
2023-04-27T23:52:37.177Z,10.11
2023-04-27T23:55:05.906Z,9.98
2023-04-27T23:57:33.771Z,10.08
